sensor_id;sensor_type;location;lat;lon;timestamp;P1;durP1;ratioP1;P2;durP2;ratioP2
22490;SDS011;11412;50.802;4.350;2023-12-20T00:00:57;6.75;;;1.85;;
22490;SDS011;11412;50.802;4.350;2023-12-20T00:03:23;7.88;;;2.00;;
22490;SDS011;11412;50.802;4.350;2023-12-20T00:05:49;6.30;;;1.80;;
22490;SDS011;11412;50.802;4.350;2023-12-20T00:08:15;6.82;;;2.00;;
22490;SDS011;11412;50.802;4.350;2023-12-20T00:10:41;7.78;;;1.95;;
22490;SDS011;11412;50.802;4.350;2023-12-20T00:13:06;6.63;;;1.75;;
22490;SDS011;11412;50.802;4.350;2023-12-20T00:15:33;8.02;;;2.40;;
22490;SDS011;11412;50.802;4.350;2023-12-20T00:17:59;9.73;;;2.35;;
22490;SDS011;11412;50.802;4.350;2023-12-20T00:20:25;9.15;;;1.90;;
22490;SDS011;11412;50.802;4.350;2023-12-20T00:22:51;6.00;;;1.90;;
22490;SDS011;11412;50.802;4.350;2023-12-20T00:25:17;5.88;;;1.80;;
22490;SDS011;11412;50.802;4.350;2023-12-20T00:27:43;11.25;;;2.25;;
22490;SDS011;11412;50.802;4.350;2023-12-20T00:30:09;9.43;;;2.97;;
22490;SDS011;11412;50.802;4.350;2023-12-20T00:32:35;4.30;;;1.75;;
22490;SDS011;11412;50.802;4.350;2023-12-20T00:35:01;10.05;;;1.80;;
22490;SDS011;11412;50.802;4.350;2023-12-20T00:37:27;5.78;;;2.00;;
22490;SDS011;11412;50.802;4.350;2023-12-20T00:39:52;10.15;;;2.45;;
22490;SDS011;11412;50.802;4.350;2023-12-20T00:42:18;5.70;;;1.60;;
22490;SDS011;11412;50.802;4.350;2023-12-20T00:44:44;4.70;;;2.17;;
22490;SDS011;11412;50.802;4.350;2023-12-20T00:47:09;7.43;;;2.15;;
22490;SDS011;11412;50.802;4.350;2023-12-20T00:49:35;8.18;;;2.03;;
22490;SDS011;11412;50.802;4.350;2023-12-20T00:52:01;4.55;;;1.70;;
22490;SDS011;11412;50.802;4.350;2023-12-20T00:54:26;7.50;;;1.73;;
22490;SDS011;11412;50.802;4.350;2023-12-20T00:56:53;8.98;;;2.45;;
22490;SDS011;11412;50.802;4.350;2023-12-20T00:59:19;7.82;;;1.95;;
22490;SDS011;11412;50.802;4.350;2023-12-20T01:01:44;8.55;;;1.92;;
22490;SDS011;11412;50.802;4.350;2023-12-20T01:04:10;8.75;;;1.98;;
22490;SDS011;11412;50.802;4.350;2023-12-20T01:06:36;9.20;;;2.05;;
22490;SDS011;11412;50.802;4.350;2023-12-20T01:09:02;7.97;;;1.80;;
22490;SDS011;11412;50.802;4.350;2023-12-20T01:11:28;7.07;;;2.05;;
22490;SDS011;11412;50.802;4.350;2023-12-20T01:13:53;13.02;;;2.50;;
22490;SDS011;11412;50.802;4.350;2023-12-20T01:16:19;9.95;;;2.25;;
22490;SDS011;11412;50.802;4.350;2023-12-20T01:18:44;5.78;;;2.13;;
22490;SDS011;11412;50.802;4.350;2023-12-20T01:21:10;9.30;;;2.30;;
22490;SDS011;11412;50.802;4.350;2023-12-20T01:23:36;8.13;;;2.38;;
22490;SDS011;11412;50.802;4.350;2023-12-20T01:26:01;7.43;;;2.20;;
22490;SDS011;11412;50.802;4.350;2023-12-20T01:28:29;4.63;;;2.20;;
22490;SDS011;11412;50.802;4.350;2023-12-20T01:30:54;8.65;;;2.03;;
22490;SDS011;11412;50.802;4.350;2023-12-20T01:33:20;4.57;;;1.90;;
22490;SDS011;11412;50.802;4.350;2023-12-20T01:35:46;7.85;;;2.40;;
22490;SDS011;11412;50.802;4.350;2023-12-20T01:38:11;5.22;;;2.55;;
22490;SDS011;11412;50.802;4.350;2023-12-20T01:40:37;8.85;;;2.55;;
22490;SDS011;11412;50.802;4.350;2023-12-20T01:43:13;6.60;;;2.22;;
22490;SDS011;11412;50.802;4.350;2023-12-20T01:45:39;12.10;;;2.65;;
22490;SDS011;11412;50.802;4.350;2023-12-20T01:48:05;9.63;;;2.58;;
22490;SDS011;11412;50.802;4.350;2023-12-20T01:50:32;7.93;;;2.50;;
22490;SDS011;11412;50.802;4.350;2023-12-20T01:53:00;9.75;;;2.58;;
22490;SDS011;11412;50.802;4.350;2023-12-20T01:55:27;6.72;;;2.28;;
22490;SDS011;11412;50.802;4.350;2023-12-20T01:57:56;9.85;;;2.33;;
22490;SDS011;11412;50.802;4.350;2023-12-20T02:00:23;12.65;;;3.08;;
22490;SDS011;11412;50.802;4.350;2023-12-20T02:02:52;5.90;;;2.30;;
22490;SDS011;11412;50.802;4.350;2023-12-20T02:05:20;9.90;;;2.72;;
22490;SDS011;11412;50.802;4.350;2023-12-20T02:07:47;6.80;;;2.50;;
22490;SDS011;11412;50.802;4.350;2023-12-20T02:10:12;9.65;;;2.92;;
22490;SDS011;11412;50.802;4.350;2023-12-20T02:12:38;8.88;;;3.13;;
22490;SDS011;11412;50.802;4.350;2023-12-20T02:15:05;11.18;;;2.95;;
22490;SDS011;11412;50.802;4.350;2023-12-20T02:17:31;7.35;;;2.15;;
22490;SDS011;11412;50.802;4.350;2023-12-20T02:19:57;6.18;;;2.42;;
22490;SDS011;11412;50.802;4.350;2023-12-20T02:22:23;8.57;;;2.63;;
22490;SDS011;11412;50.802;4.350;2023-12-20T02:24:49;7.85;;;3.10;;
22490;SDS011;11412;50.802;4.350;2023-12-20T02:27:14;10.25;;;2.70;;
22490;SDS011;11412;50.802;4.350;2023-12-20T02:29:42;7.78;;;2.60;;
22490;SDS011;11412;50.802;4.350;2023-12-20T02:32:08;11.15;;;3.40;;
22490;SDS011;11412;50.802;4.350;2023-12-20T02:34:34;9.95;;;3.13;;
22490;SDS011;11412;50.802;4.350;2023-12-20T02:36:59;8.65;;;2.80;;
22490;SDS011;11412;50.802;4.350;2023-12-20T02:39:25;10.85;;;3.40;;
22490;SDS011;11412;50.802;4.350;2023-12-20T02:41:51;7.53;;;3.10;;
22490;SDS011;11412;50.802;4.350;2023-12-20T02:44:16;9.25;;;2.78;;
22490;SDS011;11412;50.802;4.350;2023-12-20T02:46:42;11.35;;;3.17;;
22490;SDS011;11412;50.802;4.350;2023-12-20T02:49:08;11.27;;;2.85;;
22490;SDS011;11412;50.802;4.350;2023-12-20T02:51:34;11.88;;;2.92;;
22490;SDS011;11412;50.802;4.350;2023-12-20T02:53:59;10.18;;;3.10;;
22490;SDS011;11412;50.802;4.350;2023-12-20T02:56:25;11.70;;;3.50;;
22490;SDS011;11412;50.802;4.350;2023-12-20T02:58:50;12.13;;;3.90;;
22490;SDS011;11412;50.802;4.350;2023-12-20T03:01:16;17.17;;;3.92;;
22490;SDS011;11412;50.802;4.350;2023-12-20T03:03:42;11.15;;;3.50;;
22490;SDS011;11412;50.802;4.350;2023-12-20T03:06:07;9.85;;;3.83;;
22490;SDS011;11412;50.802;4.350;2023-12-20T03:08:33;10.30;;;3.17;;
22490;SDS011;11412;50.802;4.350;2023-12-20T03:10:59;8.88;;;3.33;;
22490;SDS011;11412;50.802;4.350;2023-12-20T03:13:25;9.52;;;4.03;;
22490;SDS011;11412;50.802;4.350;2023-12-20T03:15:50;11.63;;;3.85;;
22490;SDS011;11412;50.802;4.350;2023-12-20T03:18:16;13.90;;;4.20;;
22490;SDS011;11412;50.802;4.350;2023-12-20T03:20:43;10.05;;;3.95;;
22490;SDS011;11412;50.802;4.350;2023-12-20T03:23:09;8.68;;;3.40;;
22490;SDS011;11412;50.802;4.350;2023-12-20T03:25:34;9.25;;;3.63;;
22490;SDS011;11412;50.802;4.350;2023-12-20T03:28:00;6.95;;;3.65;;
22490;SDS011;11412;50.802;4.350;2023-12-20T03:30:26;11.10;;;3.70;;
22490;SDS011;11412;50.802;4.350;2023-12-20T03:32:51;9.65;;;3.22;;
22490;SDS011;11412;50.802;4.350;2023-12-20T03:35:17;11.23;;;3.92;;
22490;SDS011;11412;50.802;4.350;2023-12-20T03:37:42;11.10;;;4.05;;
22490;SDS011;11412;50.802;4.350;2023-12-20T03:40:08;11.50;;;3.65;;
22490;SDS011;11412;50.802;4.350;2023-12-20T03:42:34;10.63;;;3.60;;
22490;SDS011;11412;50.802;4.350;2023-12-20T03:45:00;10.27;;;3.50;;
22490;SDS011;11412;50.802;4.350;2023-12-20T03:47:26;11.30;;;3.80;;
22490;SDS011;11412;50.802;4.350;2023-12-20T03:49:51;9.75;;;3.50;;
22490;SDS011;11412;50.802;4.350;2023-12-20T03:52:18;6.50;;;3.13;;
22490;SDS011;11412;50.802;4.350;2023-12-20T03:54:43;6.90;;;3.30;;
22490;SDS011;11412;50.802;4.350;2023-12-20T03:57:09;8.40;;;3.00;;
22490;SDS011;11412;50.802;4.350;2023-12-20T03:59:35;10.77;;;3.60;;
22490;SDS011;11412;50.802;4.350;2023-12-20T04:02:01;14.68;;;3.40;;
22490;SDS011;11412;50.802;4.350;2023-12-20T04:04:27;10.85;;;3.40;;
22490;SDS011;11412;50.802;4.350;2023-12-20T04:06:53;9.85;;;3.90;;
22490;SDS011;11412;50.802;4.350;2023-12-20T04:09:18;11.05;;;3.30;;
22490;SDS011;11412;50.802;4.350;2023-12-20T04:11:44;13.15;;;3.60;;
22490;SDS011;11412;50.802;4.350;2023-12-20T04:14:10;11.07;;;2.90;;
22490;SDS011;11412;50.802;4.350;2023-12-20T04:16:35;6.40;;;2.83;;
22490;SDS011;11412;50.802;4.350;2023-12-20T04:19:01;10.68;;;3.13;;
22490;SDS011;11412;50.802;4.350;2023-12-20T04:21:27;6.95;;;2.83;;
22490;SDS011;11412;50.802;4.350;2023-12-20T04:23:53;8.10;;;3.20;;
22490;SDS011;11412;50.802;4.350;2023-12-20T04:26:19;9.70;;;3.70;;
22490;SDS011;11412;50.802;4.350;2023-12-20T04:28:44;12.05;;;3.00;;
22490;SDS011;11412;50.802;4.350;2023-12-20T04:31:10;13.13;;;3.38;;
22490;SDS011;11412;50.802;4.350;2023-12-20T04:33:35;11.85;;;3.45;;
22490;SDS011;11412;50.802;4.350;2023-12-20T04:36:01;8.45;;;2.78;;
22490;SDS011;11412;50.802;4.350;2023-12-20T04:38:27;7.40;;;2.47;;
22490;SDS011;11412;50.802;4.350;2023-12-20T04:40:52;8.60;;;3.03;;
22490;SDS011;11412;50.802;4.350;2023-12-20T04:43:18;9.25;;;2.58;;
22490;SDS011;11412;50.802;4.350;2023-12-20T04:45:44;11.90;;;3.08;;
22490;SDS011;11412;50.802;4.350;2023-12-20T04:48:09;6.88;;;2.63;;
22490;SDS011;11412;50.802;4.350;2023-12-20T04:50:35;13.60;;;3.15;;
22490;SDS011;11412;50.802;4.350;2023-12-20T04:53:01;14.38;;;3.72;;
22490;SDS011;11412;50.802;4.350;2023-12-20T04:55:26;8.93;;;3.25;;
22490;SDS011;11412;50.802;4.350;2023-12-20T04:57:52;9.80;;;3.08;;
22490;SDS011;11412;50.802;4.350;2023-12-20T05:00:18;11.27;;;3.05;;
22490;SDS011;11412;50.802;4.350;2023-12-20T05:02:43;9.73;;;3.53;;
22490;SDS011;11412;50.802;4.350;2023-12-20T05:05:09;12.10;;;3.22;;
22490;SDS011;11412;50.802;4.350;2023-12-20T05:07:35;10.65;;;2.53;;
22490;SDS011;11412;50.802;4.350;2023-12-20T05:10:01;8.48;;;2.67;;
22490;SDS011;11412;50.802;4.350;2023-12-20T05:12:29;16.73;;;2.67;;
22490;SDS011;11412;50.802;4.350;2023-12-20T05:14:55;10.48;;;2.95;;
22490;SDS011;11412;50.802;4.350;2023-12-20T05:17:21;12.70;;;3.45;;
22490;SDS011;11412;50.802;4.350;2023-12-20T05:19:47;11.55;;;3.40;;
22490;SDS011;11412;50.802;4.350;2023-12-20T05:22:12;12.23;;;3.10;;
22490;SDS011;11412;50.802;4.350;2023-12-20T05:24:38;11.90;;;2.80;;
22490;SDS011;11412;50.802;4.350;2023-12-20T05:27:04;7.07;;;2.70;;
22490;SDS011;11412;50.802;4.350;2023-12-20T05:29:30;10.43;;;3.38;;
22490;SDS011;11412;50.802;4.350;2023-12-20T05:31:55;9.32;;;3.22;;
22490;SDS011;11412;50.802;4.350;2023-12-20T05:34:23;9.35;;;2.67;;
22490;SDS011;11412;50.802;4.350;2023-12-20T05:36:49;12.50;;;2.80;;
22490;SDS011;11412;50.802;4.350;2023-12-20T05:39:15;7.57;;;3.25;;
22490;SDS011;11412;50.802;4.350;2023-12-20T05:41:40;9.95;;;2.63;;
22490;SDS011;11412;50.802;4.350;2023-12-20T05:44:06;11.77;;;3.03;;
22490;SDS011;11412;50.802;4.350;2023-12-20T05:46:31;9.88;;;2.88;;
22490;SDS011;11412;50.802;4.350;2023-12-20T05:48:57;6.60;;;2.40;;
22490;SDS011;11412;50.802;4.350;2023-12-20T05:51:23;7.20;;;2.90;;
22490;SDS011;11412;50.802;4.350;2023-12-20T05:53:49;8.55;;;2.58;;
22490;SDS011;11412;50.802;4.350;2023-12-20T05:56:15;11.05;;;3.42;;
22490;SDS011;11412;50.802;4.350;2023-12-20T05:58:40;6.53;;;2.58;;
22490;SDS011;11412;50.802;4.350;2023-12-20T06:01:06;11.90;;;3.22;;
22490;SDS011;11412;50.802;4.350;2023-12-20T06:03:33;13.88;;;2.80;;
22490;SDS011;11412;50.802;4.350;2023-12-20T06:05:59;10.73;;;3.00;;
22490;SDS011;11412;50.802;4.350;2023-12-20T06:08:31;11.13;;;3.17;;
22490;SDS011;11412;50.802;4.350;2023-12-20T06:10:57;9.20;;;2.40;;
22490;SDS011;11412;50.802;4.350;2023-12-20T06:13:22;8.98;;;2.80;;
22490;SDS011;11412;50.802;4.350;2023-12-20T06:15:48;8.85;;;2.72;;
22490;SDS011;11412;50.802;4.350;2023-12-20T06:18:14;10.18;;;2.75;;
22490;SDS011;11412;50.802;4.350;2023-12-20T06:20:39;14.02;;;3.00;;
22490;SDS011;11412;50.802;4.350;2023-12-20T06:23:05;7.40;;;2.65;;
22490;SDS011;11412;50.802;4.350;2023-12-20T06:25:30;8.68;;;2.95;;
22490;SDS011;11412;50.802;4.350;2023-12-20T06:27:56;9.13;;;2.42;;
22490;SDS011;11412;50.802;4.350;2023-12-20T06:30:22;6.97;;;2.72;;
22490;SDS011;11412;50.802;4.350;2023-12-20T06:32:49;10.07;;;2.85;;
22490;SDS011;11412;50.802;4.350;2023-12-20T06:35:15;7.55;;;2.40;;
22490;SDS011;11412;50.802;4.350;2023-12-20T06:37:41;11.82;;;3.58;;
22490;SDS011;11412;50.802;4.350;2023-12-20T06:40:10;8.07;;;2.90;;
22490;SDS011;11412;50.802;4.350;2023-12-20T06:42:36;8.63;;;3.05;;
22490;SDS011;11412;50.802;4.350;2023-12-20T06:45:02;8.85;;;3.28;;
22490;SDS011;11412;50.802;4.350;2023-12-20T06:47:28;11.18;;;2.70;;
22490;SDS011;11412;50.802;4.350;2023-12-20T06:49:54;10.25;;;2.60;;
22490;SDS011;11412;50.802;4.350;2023-12-20T06:52:20;12.27;;;2.55;;
22490;SDS011;11412;50.802;4.350;2023-12-20T06:54:45;11.80;;;3.10;;
22490;SDS011;11412;50.802;4.350;2023-12-20T06:57:11;8.32;;;2.50;;
22490;SDS011;11412;50.802;4.350;2023-12-20T06:59:43;15.15;;;2.78;;
22490;SDS011;11412;50.802;4.350;2023-12-20T07:02:09;12.75;;;2.85;;
22490;SDS011;11412;50.802;4.350;2023-12-20T07:04:38;6.47;;;2.33;;
22490;SDS011;11412;50.802;4.350;2023-12-20T07:07:07;9.30;;;2.22;;
22490;SDS011;11412;50.802;4.350;2023-12-20T07:09:33;6.47;;;2.65;;
22490;SDS011;11412;50.802;4.350;2023-12-20T07:11:59;7.38;;;2.55;;
22490;SDS011;11412;50.802;4.350;2023-12-20T07:14:25;12.05;;;2.85;;
22490;SDS011;11412;50.802;4.350;2023-12-20T07:16:51;8.13;;;2.28;;
22490;SDS011;11412;50.802;4.350;2023-12-20T07:19:16;8.18;;;2.60;;
22490;SDS011;11412;50.802;4.350;2023-12-20T07:21:42;11.00;;;2.65;;
22490;SDS011;11412;50.802;4.350;2023-12-20T07:24:08;8.65;;;2.30;;
22490;SDS011;11412;50.802;4.350;2023-12-20T07:26:34;10.07;;;2.72;;
22490;SDS011;11412;50.802;4.350;2023-12-20T07:29:00;8.43;;;2.17;;
22490;SDS011;11412;50.802;4.350;2023-12-20T07:31:26;10.15;;;2.88;;
22490;SDS011;11412;50.802;4.350;2023-12-20T07:33:51;13.05;;;2.70;;
22490;SDS011;11412;50.802;4.350;2023-12-20T07:36:17;12.43;;;3.03;;
22490;SDS011;11412;50.802;4.350;2023-12-20T07:38:44;13.23;;;3.35;;
22490;SDS011;11412;50.802;4.350;2023-12-20T07:41:10;8.90;;;2.35;;
22490;SDS011;11412;50.802;4.350;2023-12-20T07:43:36;11.73;;;2.55;;
22490;SDS011;11412;50.802;4.350;2023-12-20T07:46:07;9.40;;;2.17;;
22490;SDS011;11412;50.802;4.350;2023-12-20T07:48:37;10.00;;;2.60;;
22490;SDS011;11412;50.802;4.350;2023-12-20T07:51:03;10.85;;;2.80;;
22490;SDS011;11412;50.802;4.350;2023-12-20T07:53:31;14.27;;;2.78;;
22490;SDS011;11412;50.802;4.350;2023-12-20T07:55:56;9.18;;;2.40;;
22490;SDS011;11412;50.802;4.350;2023-12-20T07:58:22;9.15;;;2.70;;
22490;SDS011;11412;50.802;4.350;2023-12-20T08:00:48;14.27;;;2.53;;
22490;SDS011;11412;50.802;4.350;2023-12-20T08:03:13;7.85;;;2.63;;
22490;SDS011;11412;50.802;4.350;2023-12-20T08:05:39;8.57;;;2.63;;
22490;SDS011;11412;50.802;4.350;2023-12-20T08:08:05;8.35;;;2.58;;
22490;SDS011;11412;50.802;4.350;2023-12-20T08:10:31;12.68;;;2.58;;
22490;SDS011;11412;50.802;4.350;2023-12-20T08:12:57;9.75;;;2.80;;
22490;SDS011;11412;50.802;4.350;2023-12-20T08:15:23;17.55;;;2.92;;
22490;SDS011;11412;50.802;4.350;2023-12-20T08:17:49;9.65;;;2.78;;
22490;SDS011;11412;50.802;4.350;2023-12-20T08:20:16;11.45;;;2.58;;
22490;SDS011;11412;50.802;4.350;2023-12-20T08:22:42;9.15;;;2.53;;
22490;SDS011;11412;50.802;4.350;2023-12-20T08:25:08;8.60;;;2.38;;
22490;SDS011;11412;50.802;4.350;2023-12-20T08:27:34;10.55;;;2.25;;
22490;SDS011;11412;50.802;4.350;2023-12-20T08:30:05;6.82;;;2.45;;
22490;SDS011;11412;50.802;4.350;2023-12-20T08:32:33;13.93;;;3.10;;
22490;SDS011;11412;50.802;4.350;2023-12-20T08:34:59;13.85;;;2.70;;
22490;SDS011;11412;50.802;4.350;2023-12-20T08:37:25;10.73;;;2.30;;
22490;SDS011;11412;50.802;4.350;2023-12-20T08:39:50;7.60;;;2.65;;
22490;SDS011;11412;50.802;4.350;2023-12-20T08:42:16;7.70;;;2.33;;
22490;SDS011;11412;50.802;4.350;2023-12-20T08:44:42;10.63;;;2.75;;
22490;SDS011;11412;50.802;4.350;2023-12-20T08:47:07;10.95;;;2.97;;
22490;SDS011;11412;50.802;4.350;2023-12-20T08:49:33;17.27;;;3.70;;
22490;SDS011;11412;50.802;4.350;2023-12-20T08:51:59;11.60;;;2.50;;
22490;SDS011;11412;50.802;4.350;2023-12-20T08:54:24;17.40;;;3.58;;
22490;SDS011;11412;50.802;4.350;2023-12-20T08:56:50;14.75;;;3.10;;
22490;SDS011;11412;50.802;4.350;2023-12-20T08:59:16;11.13;;;2.50;;
22490;SDS011;11412;50.802;4.350;2023-12-20T09:01:43;10.55;;;2.80;;
22490;SDS011;11412;50.802;4.350;2023-12-20T09:04:09;11.55;;;2.40;;
22490;SDS011;11412;50.802;4.350;2023-12-20T09:06:35;10.32;;;3.17;;
22490;SDS011;11412;50.802;4.350;2023-12-20T09:09:00;8.80;;;2.85;;
22490;SDS011;11412;50.802;4.350;2023-12-20T09:11:26;11.32;;;2.67;;
22490;SDS011;11412;50.802;4.350;2023-12-20T09:13:52;10.18;;;2.75;;
22490;SDS011;11412;50.802;4.350;2023-12-20T09:16:18;9.93;;;2.72;;
22490;SDS011;11412;50.802;4.350;2023-12-20T09:18:43;7.35;;;2.35;;
22490;SDS011;11412;50.802;4.350;2023-12-20T09:21:09;9.90;;;2.80;;
22490;SDS011;11412;50.802;4.350;2023-12-20T09:23:34;13.50;;;2.60;;
22490;SDS011;11412;50.802;4.350;2023-12-20T09:26:02;6.85;;;1.92;;
22490;SDS011;11412;50.802;4.350;2023-12-20T09:28:28;9.52;;;2.63;;
22490;SDS011;11412;50.802;4.350;2023-12-20T09:30:53;8.80;;;2.38;;
22490;SDS011;11412;50.802;4.350;2023-12-20T09:33:19;8.77;;;2.53;;
22490;SDS011;11412;50.802;4.350;2023-12-20T09:35:44;15.65;;;3.17;;
22490;SDS011;11412;50.802;4.350;2023-12-20T09:38:10;8.82;;;2.67;;
22490;SDS011;11412;50.802;4.350;2023-12-20T09:40:37;12.32;;;2.45;;
22490;SDS011;11412;50.802;4.350;2023-12-20T09:43:15;9.48;;;2.35;;
22490;SDS011;11412;50.802;4.350;2023-12-20T09:45:45;8.68;;;2.45;;
22490;SDS011;11412;50.802;4.350;2023-12-20T09:48:11;10.70;;;2.78;;
22490;SDS011;11412;50.802;4.350;2023-12-20T09:50:40;12.10;;;3.20;;
22490;SDS011;11412;50.802;4.350;2023-12-20T09:53:07;17.80;;;2.67;;
22490;SDS011;11412;50.802;4.350;2023-12-20T09:55:34;8.70;;;2.63;;
22490;SDS011;11412;50.802;4.350;2023-12-20T09:58:01;9.65;;;2.30;;
22490;SDS011;11412;50.802;4.350;2023-12-20T10:00:27;12.18;;;2.67;;
22490;SDS011;11412;50.802;4.350;2023-12-20T10:02:57;9.52;;;2.95;;
22490;SDS011;11412;50.802;4.350;2023-12-20T10:05:30;12.73;;;3.28;;
22490;SDS011;11412;50.802;4.350;2023-12-20T10:07:57;13.90;;;2.97;;
22490;SDS011;11412;50.802;4.350;2023-12-20T10:10:24;13.15;;;2.75;;
22490;SDS011;11412;50.802;4.350;2023-12-20T10:13:09;13.30;;;3.03;;
22490;SDS011;11412;50.802;4.350;2023-12-20T10:15:36;12.15;;;2.13;;
22490;SDS011;11412;50.802;4.350;2023-12-20T10:18:03;9.70;;;2.53;;
22490;SDS011;11412;50.802;4.350;2023-12-20T10:20:29;28.80;;;3.35;;
22490;SDS011;11412;50.802;4.350;2023-12-20T10:22:56;11.85;;;2.50;;
22490;SDS011;11412;50.802;4.350;2023-12-20T10:25:25;9.68;;;2.53;;
22490;SDS011;11412;50.802;4.350;2023-12-20T10:28:08;9.32;;;2.08;;
22490;SDS011;11412;50.802;4.350;2023-12-20T10:30:34;6.68;;;2.53;;
22490;SDS011;11412;50.802;4.350;2023-12-20T10:33:00;8.43;;;2.05;;
22490;SDS011;11412;50.802;4.350;2023-12-20T10:35:26;10.35;;;2.75;;
22490;SDS011;11412;50.802;4.350;2023-12-20T10:37:53;14.80;;;3.20;;
22490;SDS011;11412;50.802;4.350;2023-12-20T10:40:24;12.20;;;2.40;;
22490;SDS011;11412;50.802;4.350;2023-12-20T10:42:53;7.47;;;2.25;;
22490;SDS011;11412;50.802;4.350;2023-12-20T10:45:19;7.97;;;2.55;;
22490;SDS011;11412;50.802;4.350;2023-12-20T10:47:46;13.32;;;2.90;;
22490;SDS011;11412;50.802;4.350;2023-12-20T10:50:13;8.32;;;2.63;;
22490;SDS011;11412;50.802;4.350;2023-12-20T10:52:40;9.98;;;2.75;;
22490;SDS011;11412;50.802;4.350;2023-12-20T10:55:07;7.82;;;2.78;;
22490;SDS011;11412;50.802;4.350;2023-12-20T10:57:34;9.82;;;2.90;;
22490;SDS011;11412;50.802;4.350;2023-12-20T11:00:01;14.95;;;2.67;;
22490;SDS011;11412;50.802;4.350;2023-12-20T11:02:32;10.52;;;2.53;;
22490;SDS011;11412;50.802;4.350;2023-12-20T11:05:01;14.73;;;3.20;;
22490;SDS011;11412;50.802;4.350;2023-12-20T11:07:43;10.93;;;2.53;;
22490;SDS011;11412;50.802;4.350;2023-12-20T11:10:31;12.57;;;2.80;;
22490;SDS011;11412;50.802;4.350;2023-12-20T11:13:12;12.05;;;2.70;;
22490;SDS011;11412;50.802;4.350;2023-12-20T11:15:41;12.02;;;2.33;;
22490;SDS011;11412;50.802;4.350;2023-12-20T11:18:08;12.43;;;2.40;;
22490;SDS011;11412;50.802;4.350;2023-12-20T11:20:40;7.32;;;2.40;;
22490;SDS011;11412;50.802;4.350;2023-12-20T11:23:07;15.38;;;3.95;;
22490;SDS011;11412;50.802;4.350;2023-12-20T11:25:46;12.98;;;2.50;;
22490;SDS011;11412;50.802;4.350;2023-12-20T11:28:23;9.38;;;2.75;;
22490;SDS011;11412;50.802;4.350;2023-12-20T11:30:53;14.90;;;2.85;;
22490;SDS011;11412;50.802;4.350;2023-12-20T11:33:24;15.32;;;2.92;;
22490;SDS011;11412;50.802;4.350;2023-12-20T11:36:03;6.45;;;2.53;;
22490;SDS011;11412;50.802;4.350;2023-12-20T11:38:37;12.10;;;2.80;;
22490;SDS011;11412;50.802;4.350;2023-12-20T11:41:05;15.40;;;2.97;;
22490;SDS011;11412;50.802;4.350;2023-12-20T11:43:32;9.45;;;2.80;;
22490;SDS011;11412;50.802;4.350;2023-12-20T11:46:04;12.45;;;3.15;;
22490;SDS011;11412;50.802;4.350;2023-12-20T11:48:31;11.73;;;2.67;;
22490;SDS011;11412;50.802;4.350;2023-12-20T11:50:57;12.88;;;2.50;;
22490;SDS011;11412;50.802;4.350;2023-12-20T11:53:23;13.50;;;2.92;;
22490;SDS011;11412;50.802;4.350;2023-12-20T11:55:49;8.40;;;2.53;;
22490;SDS011;11412;50.802;4.350;2023-12-20T11:58:15;11.00;;;2.40;;
22490;SDS011;11412;50.802;4.350;2023-12-20T12:00:42;9.00;;;2.47;;
22490;SDS011;11412;50.802;4.350;2023-12-20T12:03:08;15.25;;;2.95;;
22490;SDS011;11412;50.802;4.350;2023-12-20T12:05:34;11.35;;;2.40;;
22490;SDS011;11412;50.802;4.350;2023-12-20T12:08:00;7.60;;;2.30;;
22490;SDS011;11412;50.802;4.350;2023-12-20T12:10:27;11.52;;;3.15;;
22490;SDS011;11412;50.802;4.350;2023-12-20T12:12:53;12.30;;;2.75;;
22490;SDS011;11412;50.802;4.350;2023-12-20T12:15:19;10.00;;;2.25;;
22490;SDS011;11412;50.802;4.350;2023-12-20T12:17:52;13.23;;;2.50;;
22490;SDS011;11412;50.802;4.350;2023-12-20T12:20:19;13.65;;;2.50;;
22490;SDS011;11412;50.802;4.350;2023-12-20T12:22:45;12.65;;;2.30;;
22490;SDS011;11412;50.802;4.350;2023-12-20T12:25:12;10.07;;;2.85;;
22490;SDS011;11412;50.802;4.350;2023-12-20T12:27:39;6.90;;;2.38;;
22490;SDS011;11412;50.802;4.350;2023-12-20T12:30:06;9.40;;;2.35;;
22490;SDS011;11412;50.802;4.350;2023-12-20T12:32:34;10.90;;;2.35;;
22490;SDS011;11412;50.802;4.350;2023-12-20T12:35:02;13.00;;;2.88;;
22490;SDS011;11412;50.802;4.350;2023-12-20T12:37:33;6.43;;;2.30;;
22490;SDS011;11412;50.802;4.350;2023-12-20T12:40:00;7.20;;;2.42;;
22490;SDS011;11412;50.802;4.350;2023-12-20T12:42:26;10.55;;;3.05;;
22490;SDS011;11412;50.802;4.350;2023-12-20T12:44:54;7.20;;;2.40;;
22490;SDS011;11412;50.802;4.350;2023-12-20T12:47:20;11.77;;;2.63;;
22490;SDS011;11412;50.802;4.350;2023-12-20T12:49:47;10.02;;;2.40;;
22490;SDS011;11412;50.802;4.350;2023-12-20T12:52:14;12.50;;;2.80;;
22490;SDS011;11412;50.802;4.350;2023-12-20T12:54:40;15.07;;;2.42;;
22490;SDS011;11412;50.802;4.350;2023-12-20T12:57:07;8.95;;;2.08;;
22490;SDS011;11412;50.802;4.350;2023-12-20T12:59:33;10.98;;;2.47;;
22490;SDS011;11412;50.802;4.350;2023-12-20T13:01:58;5.85;;;2.10;;
22490;SDS011;11412;50.802;4.350;2023-12-20T13:04:24;15.52;;;2.90;;
22490;SDS011;11412;50.802;4.350;2023-12-20T13:06:50;10.23;;;2.30;;
22490;SDS011;11412;50.802;4.350;2023-12-20T13:09:16;7.60;;;1.95;;
22490;SDS011;11412;50.802;4.350;2023-12-20T13:11:43;12.85;;;2.72;;
22490;SDS011;11412;50.802;4.350;2023-12-20T13:14:09;11.48;;;2.35;;
22490;SDS011;11412;50.802;4.350;2023-12-20T13:16:40;12.77;;;2.47;;
22490;SDS011;11412;50.802;4.350;2023-12-20T13:19:06;7.82;;;2.17;;
22490;SDS011;11412;50.802;4.350;2023-12-20T13:21:31;12.35;;;2.80;;
22490;SDS011;11412;50.802;4.350;2023-12-20T13:23:57;9.40;;;2.72;;
22490;SDS011;11412;50.802;4.350;2023-12-20T13:26:23;10.38;;;2.22;;
22490;SDS011;11412;50.802;4.350;2023-12-20T13:28:49;7.13;;;2.10;;
22490;SDS011;11412;50.802;4.350;2023-12-20T13:31:14;8.25;;;2.00;;
22490;SDS011;11412;50.802;4.350;2023-12-20T13:33:40;9.70;;;2.40;;
22490;SDS011;11412;50.802;4.350;2023-12-20T13:36:06;10.20;;;2.40;;
22490;SDS011;11412;50.802;4.350;2023-12-20T13:38:32;10.48;;;2.65;;
22490;SDS011;11412;50.802;4.350;2023-12-20T13:40:57;9.32;;;2.30;;
22490;SDS011;11412;50.802;4.350;2023-12-20T13:43:24;10.57;;;2.10;;
22490;SDS011;11412;50.802;4.350;2023-12-20T13:45:50;13.02;;;2.55;;
22490;SDS011;11412;50.802;4.350;2023-12-20T13:48:16;10.85;;;2.20;;
22490;SDS011;11412;50.802;4.350;2023-12-20T13:50:42;10.93;;;2.40;;
22490;SDS011;11412;50.802;4.350;2023-12-20T13:53:07;11.07;;;2.45;;
22490;SDS011;11412;50.802;4.350;2023-12-20T13:55:33;12.90;;;2.35;;
22490;SDS011;11412;50.802;4.350;2023-12-20T13:57:59;8.00;;;2.40;;
22490;SDS011;11412;50.802;4.350;2023-12-20T14:00:24;11.20;;;2.55;;
22490;SDS011;11412;50.802;4.350;2023-12-20T14:02:50;7.18;;;2.10;;
22490;SDS011;11412;50.802;4.350;2023-12-20T14:05:16;14.57;;;2.80;;
22490;SDS011;11412;50.802;4.350;2023-12-20T14:07:43;13.30;;;2.30;;
22490;SDS011;11412;50.802;4.350;2023-12-20T14:10:12;12.57;;;2.85;;
22490;SDS011;11412;50.802;4.350;2023-12-20T14:12:38;15.15;;;2.63;;
22490;SDS011;11412;50.802;4.350;2023-12-20T14:15:04;10.05;;;2.20;;
22490;SDS011;11412;50.802;4.350;2023-12-20T14:17:36;8.32;;;2.05;;
22490;SDS011;11412;50.802;4.350;2023-12-20T14:20:03;10.68;;;2.83;;
22490;SDS011;11412;50.802;4.350;2023-12-20T14:22:31;17.48;;;2.75;;
22490;SDS011;11412;50.802;4.350;2023-12-20T14:24:57;12.52;;;3.25;;
22490;SDS011;11412;50.802;4.350;2023-12-20T14:27:22;13.73;;;2.78;;
22490;SDS011;11412;50.802;4.350;2023-12-20T14:29:49;9.65;;;2.63;;
22490;SDS011;11412;50.802;4.350;2023-12-20T14:32:15;9.85;;;2.67;;
22490;SDS011;11412;50.802;4.350;2023-12-20T14:34:41;10.43;;;2.40;;
22490;SDS011;11412;50.802;4.350;2023-12-20T14:37:07;11.57;;;2.30;;